Time;durP1;ratioP1;P1;durP2;ratioP2;P2;SDS_P1;SDS_P2;PMS_P1;PMS_P2;Temp;Humidity;BMP_temperature;BMP_pressure;BME280_temperature;BME280_humidity;BME280_pressure;Samples;Min_cycle;Max_cycle;Signal;HPM_P1;HPM_P2
2023/02/28 00:00:54;;;;;;;12.60;7.30;;;;;;;-1.10;70.19;102183.64;104474;1278;98680;-79
2023/02/28 00:03:39;;;;;;;11.90;6.20;;;;;;;-1.13;70.28;102185.36;104486;1283;97985;-77
2023/02/28 00:06:25;;;;;;;11.30;6.60;;;;;;;-1.16;70.40;102182.02;104499;1280;98020;-79
2023/02/28 00:09:09;;;;;;;14.60;6.70;;;;;;;-1.17;70.57;102181.70;104371;1280;102567;-79
2023/02/28 00:11:54;;;;;;;12.30;6.40;;;;;;;-1.18;70.70;102187.39;104483;1279;99332;-77
2023/02/28 00:14:39;;;;;;;11.60;5.90;;;;;;;-1.22;70.91;102190.00;104457;1278;98015;-78
2023/02/28 00:17:24;;;;;;;12.10;6.50;;;;;;;-1.25;71.07;102190.48;104438;1274;98114;-78
2023/02/28 00:20:11;;;;;;;11.60;6.60;;;;;;;-1.27;71.29;102194.64;104469;1279;98721;-80
2023/02/28 00:22:59;;;;;;;13.00;7.20;;;;;;;-1.29;71.40;102194.37;104553;1278;101999;-80
2023/02/28 00:25:43;;;;;;;11.60;6.10;;;;;;;-1.29;71.80;102198.23;104575;1280;100430;-76
2023/02/28 00:28:28;;;;;;;14.50;6.70;;;;;;;-1.29;71.97;102197.01;104417;1280;98106;-80
2023/02/28 00:31:13;;;;;;;13.90;6.20;;;;;;;-1.30;72.04;102194.27;104630;1276;98763;-78
2023/02/28 00:33:58;;;;;;;9.30;6.10;;;;;;;-1.34;72.18;102194.97;104786;1274;98003;-79
2023/02/28 00:36:45;;;;;;;12.50;6.40;;;;;;;-1.36;72.35;102198.55;104653;1279;102575;-79
2023/02/28 00:39:30;;;;;;;11.00;6.00;;;;;;;-1.35;72.55;102198.69;104690;1279;99127;-80
2023/02/28 00:42:14;;;;;;;13.80;6.80;;;;;;;-1.40;72.62;102199.45;104725;1279;97934;-80
2023/02/28 00:44:59;;;;;;;13.20;6.10;;;;;;;-1.47;72.81;102199.80;104741;1273;97899;-79
2023/02/28 00:47:46;;;;;;;11.00;5.70;;;;;;;-1.50;73.09;102198.16;104360;1279;97969;-79
2023/02/28 00:50:31;;;;;;;10.90;6.30;;;;;;;-1.50;73.28;102196.79;104429;1279;102258;-77
2023/02/28 00:53:16;;;;;;;8.40;5.00;;;;;;;-1.53;73.38;102195.33;104575;1278;99222;-76
2023/02/28 00:56:01;;;;;;;10.70;5.60;;;;;;;-1.59;73.37;102196.81;104417;1279;99120;-79
2023/02/28 00:58:46;;;;;;;12.40;6.80;;;;;;;-1.63;73.40;102190.90;104459;1276;98017;-79
2023/02/28 01:01:31;;;;;;;9.00;5.80;;;;;;;-1.67;73.38;102191.97;104469;1278;97992;-79
2023/02/28 01:04:17;;;;;;;13.70;7.00;;;;;;;-1.72;73.50;102190.42;104486;1279;101987;-79
2023/02/28 01:07:02;;;;;;;12.00;6.40;;;;;;;-1.75;73.72;102193.71;104518;1273;99202;-79
2023/02/28 01:09:47;;;;;;;11.70;6.20;;;;;;;-1.77;73.75;102195.75;104435;1279;99104;-79
2023/02/28 01:12:31;;;;;;;10.70;6.40;;;;;;;-1.80;73.60;102194.64;104519;1273;99008;-79
2023/02/28 01:15:16;;;;;;;12.00;6.70;;;;;;;-1.83;73.60;102196.02;104309;1273;98523;-79
2023/02/28 01:18:03;;;;;;;11.70;7.40;;;;;;;-1.86;73.51;102197.05;104622;1273;101280;-80
2023/02/28 01:20:51;;;;;;;14.30;7.30;;;;;;;-1.90;73.61;102197.54;104481;1273;99202;-77
2023/02/28 01:23:36;;;;;;;11.60;7.10;;;;;;;-1.93;73.54;102193.86;104555;1280;98116;-78
2023/02/28 01:26:22;;;;;;;11.90;6.60;;;;;;;-1.97;73.43;102197.52;104447;1287;97910;-79
2023/02/28 01:29:07;;;;;;;13.40;7.20;;;;;;;-2.01;73.41;102193.51;104486;1279;98957;-76
2023/02/28 01:31:52;;;;;;;15.40;7.30;;;;;;;-2.06;73.59;102189.87;104430;1280;101462;-77
2023/02/28 01:34:37;;;;;;;12.50;6.90;;;;;;;-2.09;73.82;102191.25;104281;1274;99172;-78
2023/02/28 01:37:22;;;;;;;13.10;7.00;;;;;;;-2.13;73.82;102194.39;104464;1280;98036;-79
2023/02/28 01:40:09;;;;;;;11.40;7.00;;;;;;;-2.16;73.82;102194.02;104439;1280;99279;-78
2023/02/28 01:42:54;;;;;;;11.70;6.50;;;;;;;-2.19;74.26;102195.03;104676;1274;97997;-77
2023/02/28 01:45:39;;;;;;;13.40;7.60;;;;;;;-2.21;74.59;102196.17;104453;1287;102693;-79
2023/02/28 01:48:29;;;;;;;12.90;7.10;;;;;;;-2.23;74.85;102195.38;104414;1279;99845;-78
2023/02/28 01:51:27;;;;;;;15.80;7.80;;;;;;;-2.26;74.89;102197.25;104491;1273;97942;-78
2023/02/28 01:54:16;;;;;;;14.70;7.50;;;;;;;-2.30;74.82;102200.92;104462;1273;98292;-79
2023/02/28 01:57:14;;;;;;;12.60;6.70;;;;;;;-2.34;75.15;102201.61;104377;1279;98779;-77
2023/02/28 02:00:07;;;;;;;13.60;7.00;;;;;;;-2.37;75.56;102200.34;104320;1279;101336;-79
2023/02/28 02:03:05;;;;;;;13.00;6.70;;;;;;;-2.40;75.69;102203.09;104418;1280;99298;-78
2023/02/28 02:05:50;;;;;;;11.70;6.80;;;;;;;-2.44;75.74;102200.13;104430;1273;98457;-78
2023/02/28 02:08:36;;;;;;;14.10;7.40;;;;;;;-2.47;75.78;102196.42;104395;1279;98000;-78
2023/02/28 02:11:24;;;;;;;14.20;6.70;;;;;;;-2.51;76.00;102194.48;104502;1273;98542;-79
2023/02/28 02:14:28;;;;;;;15.40;7.20;;;;;;;-2.54;76.12;102198.09;104536;1287;101432;-77
2023/02/28 02:17:38;;;;;;;15.80;8.10;;;;;;;-2.55;76.34;102197.47;104440;1273;100425;-79
2023/02/28 02:20:45;;;;;;;16.20;8.70;;;;;;;-2.55;76.56;102196.23;104214;1279;97994;-78
2023/02/28 02:23:48;;;;;;;19.20;9.00;;;;;;;-2.56;76.60;102196.44;104448;1273;98027;-79
2023/02/28 02:27:18;;;;;;;19.10;10.50;;;;;;;-2.58;76.69;102194.07;104470;1280;98037;-77
2023/02/28 02:30:35;;;;;;;16.90;9.00;;;;;;;-2.60;76.63;102197.46;104348;1278;101382;-78
2023/02/28 02:33:58;;;;;;;20.10;9.20;;;;;;;-2.63;76.50;102199.70;104558;1280;100521;-79
2023/02/28 02:36:49;;;;;;;21.90;9.20;;;;;;;-2.68;76.18;102197.83;104430;1280;98071;-79
2023/02/28 02:39:56;;;;;;;20.30;9.60;;;;;;;-2.73;76.23;102198.39;104342;1280;98049;-78
2023/02/28 02:43:00;;;;;;;19.10;9.70;;;;;;;-2.75;75.94;102197.44;104304;1273;97998;-77
2023/02/28 02:45:50;;;;;;;20.10;10.90;;;;;;;-2.78;75.77;102195.27;104457;1280;101473;-79
2023/02/28 02:48:40;;;;;;;24.30;11.10;;;;;;;-2.80;75.66;102200.95;104323;1278;99231;-78
2023/02/28 02:51:27;;;;;;;41.30;18.50;;;;;;;-2.82;75.62;102202.11;104427;1279;98017;-77
2023/02/28 02:54:19;;;;;;;56.00;21.50;;;;;;;-2.83;75.94;102202.48;104500;1275;98023;-77
2023/02/28 02:57:09;;;;;;;67.60;27.90;;;;;;;-2.84;75.89;102201.83;104254;1273;151039;-78
2023/02/28 02:59:56;;;;;;;57.90;25.60;;;;;;;-2.87;75.85;102203.15;104329;1279;101346;-77
2023/02/28 03:02:43;;;;;;;56.40;24.00;;;;;;;-2.90;75.81;102204.69;104374;1279;100253;-77
2023/02/28 03:05:41;;;;;;;39.20;18.60;;;;;;;-2.93;75.98;102201.85;104644;1273;97994;-77
2023/02/28 03:08:27;;;;;;;28.80;13.20;;;;;;;-2.94;76.29;102202.79;104474;1274;98110;-77
2023/02/28 03:11:15;;;;;;;26.20;13.00;;;;;;;-2.95;76.32;102205.92;104500;1277;97975;-76
2023/02/28 03:14:15;;;;;;;23.70;11.70;;;;;;;-2.97;76.48;102205.69;104045;1279;102682;-78
2023/02/28 03:17:23;;;;;;;24.30;11.90;;;;;;;-3.01;76.45;102207.09;103952;1274;100440;-78
2023/02/28 03:20:09;;;;;;;22.60;11.90;;;;;;;-3.06;76.44;102208.84;103930;1279;98176;-78
2023/02/28 03:23:13;;;;;;;25.10;11.10;;;;;;;-3.09;76.37;102210.01;104374;1274;99286;-76
2023/02/28 03:26:12;;;;;;;27.40;12.20;;;;;;;-3.13;76.04;102209.64;104387;1274;99916;-77
2023/02/28 03:29:07;;;;;;;25.00;12.30;;;;;;;-3.17;75.99;102213.30;104240;1279;102300;-77
2023/02/28 03:32:03;;;;;;;27.40;12.00;;;;;;;-3.20;76.16;102216.56;104195;1280;100373;-78
2023/02/28 03:34:56;;;;;;;24.10;12.10;;;;;;;-3.22;76.49;102216.80;104541;1281;99077;-78
2023/02/28 03:37:44;;;;;;;25.30;11.80;;;;;;;-3.24;76.45;102214.95;104403;1274;98524;-78
2023/02/28 03:40:34;;;;;;;21.40;11.30;;;;;;;-3.26;76.40;102217.48;104578;1278;98455;-78
2023/02/28 03:43:25;;;;;;;22.90;11.40;;;;;;;-3.29;76.26;102219.00;104396;1278;102675;-79
2023/02/28 03:46:14;;;;;;;24.90;12.30;;;;;;;-3.31;76.19;102220.31;103926;1279;99882;-78
2023/02/28 03:49:11;;;;;;;27.10;14.60;;;;;;;-3.31;76.42;102223.64;104001;1273;98811;-78
2023/02/28 03:51:59;;;;;;;24.20;12.70;;;;;;;-3.32;76.54;102225.76;105139;1279;98058;-78
2023/02/28 03:54:50;;;;;;;30.00;13.80;;;;;;;-3.34;76.84;102223.57;104453;1273;99601;-77
2023/02/28 03:57:47;;;;;;;25.40;12.60;;;;;;;-3.39;76.67;102227.27;104447;1280;103177;-77
2023/02/28 04:00:40;;;;;;;28.90;14.50;;;;;;;-3.44;76.52;102228.35;104430;1274;100400;-80
2023/02/28 04:03:25;;;;;;;29.50;13.70;;;;;;;-3.47;76.55;102229.66;104426;1280;97930;-78
2023/02/28 04:06:18;;;;;;;29.20;13.70;;;;;;;-3.50;76.27;102228.73;104369;1280;97924;-78
2023/02/28 04:09:04;;;;;;;23.50;12.00;;;;;;;-3.52;76.27;102230.55;104805;1273;98152;-78
2023/02/28 04:11:52;;;;;;;25.80;14.10;;;;;;;-3.54;76.22;102226.95;104580;1278;102331;-78
2023/02/28 04:14:36;;;;;;;21.20;12.00;;;;;;;-3.58;76.08;102226.95;104426;1279;99279;-77
2023/02/28 04:17:21;;;;;;;28.30;13.40;;;;;;;-3.63;76.37;102226.95;104333;1273;99074;-78
2023/02/28 04:20:09;;;;;;;29.30;14.20;;;;;;;-3.65;76.66;102226.34;104408;1280;97923;-77
2023/02/28 04:22:54;;;;;;;28.60;13.10;;;;;;;-3.66;76.79;102230.23;104028;1278;97905;-77
2023/02/28 04:25:40;;;;;;;28.60;14.30;;;;;;;-3.68;76.76;102228.88;103966;1273;101364;-78
2023/02/28 04:28:25;;;;;;;30.40;14.30;;;;;;;-3.70;76.63;102228.45;104277;1273;100546;-78
2023/02/28 04:31:10;;;;;;;31.70;15.70;;;;;;;-3.73;76.52;102232.40;104408;1273;98492;-78
2023/02/28 04:33:55;;;;;;;36.80;17.80;;;;;;;-3.75;76.76;102233.52;104288;1274;98692;-79
2023/02/28 04:36:39;;;;;;;41.10;20.60;;;;;;;-3.74;76.64;102233.49;104419;1278;97713;-79
2023/02/28 04:39:24;;;;;;;38.40;19.60;;;;;;;-3.74;76.63;102231.91;104356;1280;102713;-77
2023/02/28 04:42:11;;;;;;;44.80;22.00;;;;;;;-3.75;76.70;102231.42;104315;1279;100350;-78
2023/02/28 04:44:56;;;;;;;42.90;19.90;;;;;;;-3.75;76.84;102229.52;104437;1288;98045;-79
2023/02/28 04:47:40;;;;;;;35.20;20.20;;;;;;;-3.76;76.79;102228.32;104411;1274;98124;-78
2023/02/28 04:50:25;;;;;;;45.60;22.10;;;;;;;-3.76;76.99;102232.52;104504;1273;97994;-79
2023/02/28 04:53:10;;;;;;;52.70;25.00;;;;;;;-3.75;77.09;102234.89;104448;1274;103098;-78
2023/02/28 04:55:56;;;;;;;59.50;26.60;;;;;;;-3.77;77.48;102235.86;104468;1273;100591;-76
2023/02/28 04:58:40;;;;;;;51.30;24.10;;;;;;;-3.78;77.55;102230.48;104341;1279;99087;-78
2023/02/28 05:01:32;;;;;;;47.50;22.20;;;;;;;-3.79;77.60;102234.70;104414;1279;97959;-78
2023/02/28 05:04:17;;;;;;;38.10;20.20;;;;;;;-3.79;77.55;102237.15;104368;1273;98440;-78
2023/02/28 05:07:02;;;;;;;39.60;19.60;;;;;;;-3.82;77.37;102237.10;104437;1279;101426;-78
2023/02/28 05:09:47;;;;;;;49.00;25.50;;;;;;;-3.88;77.33;102241.34;104300;1280;100337;-77
2023/02/28 05:12:32;;;;;;;45.80;24.30;;;;;;;-3.93;77.37;102244.11;104423;1273;98874;-78
2023/02/28 05:15:17;;;;;;;39.90;19.20;;;;;;;-3.95;77.74;102250.98;104461;1279;97990;-76
2023/02/28 05:18:01;;;;;;;36.70;18.50;;;;;;;-3.98;77.93;102253.05;104506;1279;99230;-80
2023/02/28 05:20:46;;;;;;;34.00;16.60;;;;;;;-4.01;78.05;102256.77;104477;1274;101433;-78
2023/02/28 05:23:32;;;;;;;40.20;17.30;;;;;;;-4.02;77.94;102257.70;104423;1273;99932;-78
2023/02/28 05:26:16;;;;;;;32.60;16.80;;;;;;;-4.05;77.93;102264.25;104249;1273;97909;-76
2023/02/28 05:29:02;;;;;;;38.70;16.10;;;;;;;-4.07;78.07;102269.23;104409;1273;98033;-78
2023/02/28 05:31:47;;;;;;;36.30;17.30;;;;;;;-4.08;78.38;102266.80;104271;1277;98417;-77
2023/02/28 05:34:32;;;;;;;30.70;15.70;;;;;;;-4.06;78.67;102271.63;104029;1273;102244;-78
2023/02/28 05:37:16;;;;;;;36.10;16.90;;;;;;;-4.06;78.62;102273.38;104223;1274;100448;-78
2023/02/28 05:40:02;;;;;;;33.50;17.80;;;;;;;-4.08;78.28;102276.91;104423;1274;98794;-77
2023/02/28 05:42:50;;;;;;;32.30;16.70;;;;;;;-4.11;78.22;102281.58;104432;1274;98015;-76
2023/02/28 05:45:35;;;;;;;36.70;18.70;;;;;;;-4.13;78.14;102283.36;104376;1276;98028;-78
2023/02/28 05:48:20;;;;;;;40.00;18.40;;;;;;;-4.13;78.60;102286.16;104455;1273;102720;-76
2023/02/28 05:51:07;;;;;;;35.20;17.50;;;;;;;-4.12;78.71;102283.34;104497;1277;100178;-78
2023/02/28 05:53:51;;;;;;;41.80;19.20;;;;;;;-4.12;78.80;102288.23;104482;1278;99039;-79
2023/02/28 05:56:39;;;;;;;36.90;17.60;;;;;;;-4.11;78.87;102289.78;104394;1279;97987;-78
2023/02/28 05:59:24;;;;;;;40.10;19.70;;;;;;;-4.12;78.85;102289.10;104436;1274;98523;-77
2023/02/28 06:02:14;;;;;;;43.20;21.80;;;;;;;-4.12;78.93;102292.94;104451;1280;101290;-78
2023/02/28 06:04:59;;;;;;;44.60;21.30;;;;;;;-4.10;79.11;102296.89;104324;1279;99408;-80
2023/02/28 06:07:44;;;;;;;38.40;20.20;;;;;;;-4.10;79.21;102301.59;104352;1280;99518;-78
2023/02/28 06:10:29;;;;;;;39.70;22.10;;;;;;;-4.09;79.32;102304.36;104499;1273;97899;-77
2023/02/28 06:13:14;;;;;;;38.50;20.10;;;;;;;-4.09;79.42;102308.01;104556;1274;99295;-78
2023/02/28 06:16:02;;;;;;;42.70;20.20;;;;;;;-4.07;79.38;102312.16;104591;1279;101376;-78
2023/02/28 06:18:46;;;;;;;44.80;20.10;;;;;;;-4.05;79.47;102314.52;104509;1278;99189;-79
2023/02/28 06:21:31;;;;;;;35.00;17.40;;;;;;;-4.02;79.66;102316.34;104404;1279;98072;-78
2023/02/28 06:24:16;;;;;;;38.10;18.40;;;;;;;-4.02;79.57;102316.52;104311;1279;98912;-77
2023/02/28 06:27:04;;;;;;;38.90;18.50;;;;;;;-4.01;79.57;102316.83;104452;1273;98475;-77
2023/02/28 06:29:54;;;;;;;35.00;17.70;;;;;;;-4.00;79.86;102314.86;104511;1278;102492;-78
2023/02/28 06:32:39;;;;;;;38.40;18.20;;;;;;;-3.99;80.22;102315.67;104228;1279;99107;-78
2023/02/28 06:35:24;;;;;;;37.50;20.40;;;;;;;-3.96;80.55;102311.06;104401;1279;99282;-78
2023/02/28 06:38:09;;;;;;;44.10;20.60;;;;;;;-3.95;80.85;102312.23;104357;1273;98078;-78
2023/02/28 06:40:56;;;;;;;39.80;20.30;;;;;;;-3.95;81.08;102311.20;104466;1273;98534;-78
2023/02/28 06:43:41;;;;;;;41.20;19.80;;;;;;;-3.90;81.48;102304.58;104269;1274;103049;-77
2023/02/28 06:46:26;;;;;;;47.70;22.80;;;;;;;-3.84;81.72;102299.67;104412;1280;99169;-78
2023/02/28 06:49:12;;;;;;;49.30;25.10;;;;;;;-3.80;81.97;102291.31;104463;1274;98758;-78
2023/02/28 06:51:57;;;;;;;47.50;22.50;;;;;;;-3.76;82.02;102285.05;104333;1279;97978;-78
2023/02/28 06:54:42;;;;;;;52.60;23.10;;;;;;;-3.71;82.27;102284.69;104551;1273;98012;-78
2023/02/28 06:57:32;;;;;;;54.40;22.90;;;;;;;-3.64;82.47;102282.34;104482;1279;101533;-78
2023/02/28 07:00:17;;;;;;;48.90;24.00;;;;;;;-3.55;82.63;102281.51;104458;1280;99322;-80
2023/02/28 07:03:02;;;;;;;49.00;23.60;;;;;;;-3.46;82.61;102277.99;104411;1279;99078;-78
2023/02/28 07:05:47;;;;;;;50.00;23.80;;;;;;;-3.37;82.44;102279.59;104761;1278;97988;-84
2023/02/28 07:08:34;;;;;;;45.80;23.00;;;;;;;-3.28;82.50;102277.34;104792;1273;96615;-88
2023/02/28 07:11:25;;;;;;;47.50;26.70;;;;;;;-3.19;82.69;102276.98;104874;1279;102610;-78
2023/02/28 07:14:10;;;;;;;59.90;28.00;;;;;;;-3.09;82.88;102279.73;104378;1273;99165;-77
2023/02/28 07:16:59;;;;;;;52.10;26.30;;;;;;;-3.01;82.77;102279.23;104198;1274;99737;-76
2023/02/28 07:19:43;;;;;;;44.40;24.50;;;;;;;-2.93;82.68;102281.54;103920;1277;99273;-77
2023/02/28 07:22:28;;;;;;;43.50;21.90;;;;;;;-2.85;82.54;102285.22;103961;1274;98026;-76
2023/02/28 07:25:13;;;;;;;46.10;25.50;;;;;;;-2.75;82.62;102286.77;104448;1274;102100;-81
2023/02/28 07:27:58;;;;;;;50.30;26.60;;;;;;;-2.65;82.53;102287.92;104327;1273;100340;-78
2023/02/28 07:30:44;;;;;;;68.70;33.00;;;;;;;-2.54;82.46;102279.96;104312;1279;99226;-78
2023/02/28 07:33:28;;;;;;;52.00;27.80;;;;;;;-2.44;82.53;102279.17;104439;1274;97991;-79
2023/02/28 07:36:16;;;;;;;106.80;43.90;;;;;;;-2.25;83.91;102277.66;104609;1279;97782;-81
2023/02/28 07:39:02;;;;;;;89.10;37.70;;;;;;;-2.09;82.62;102279.81;104435;1274;102356;-80
2023/02/28 07:41:47;;;;;;;77.60;34.30;;;;;;;-1.99;81.81;102283.05;104435;1273;99099;-76
2023/02/28 07:44:32;;;;;;;48.10;25.00;;;;;;;-1.91;81.61;102281.63;104193;1278;98756;-76
2023/02/28 07:47:17;;;;;;;33.80;20.20;;;;;;;-1.83;80.99;102279.88;104814;1273;97921;-78
2023/02/28 07:50:02;;;;;;;43.40;21.00;;;;;;;-1.76;80.24;102283.77;104452;1278;98869;-82
2023/02/28 07:52:47;;;;;;;39.10;20.50;;;;;;;-1.68;79.99;102283.94;105137;1273;101310;-83
2023/02/28 07:55:32;;;;;;;37.80;21.30;;;;;;;-1.61;79.76;102283.80;104492;1276;99149;-79
2023/02/28 07:58:17;;;;;;;52.90;24.40;;;;;;;-1.53;79.68;102286.77;104442;1274;98938;-78
2023/02/28 08:01:10;;;;;;;47.60;25.40;;;;;;;-1.45;79.85;102290.27;104398;1274;97905;-77
2023/02/28 08:03:56;;;;;;;38.00;20.40;;;;;;;-1.37;79.68;102292.17;104356;1278;98520;-75
2023/02/28 08:06:41;;;;;;;40.70;20.30;;;;;;;-1.30;79.34;102290.79;104309;1273;101764;-77
2023/02/28 08:09:26;;;;;;;30.80;15.80;;;;;;;-1.22;78.77;102290.96;104041;1279;99164;-77
2023/02/28 08:12:11;;;;;;;32.10;17.50;;;;;;;-1.16;78.25;102291.56;104766;1274;98080;-86
2023/02/28 08:14:56;;;;;;;34.20;18.40;;;;;;;-1.09;77.94;102289.45;105320;1275;97871;-88
2023/02/28 08:17:41;;;;;;;29.90;15.90;;;;;;;-1.00;77.74;102292.38;105105;1274;97660;-77
2023/02/28 08:20:27;;;;;;;20.60;12.80;;;;;;;-0.92;77.27;102289.55;104572;1274;102420;-80
2023/02/28 08:23:12;;;;;;;28.40;14.20;;;;;;;-0.86;76.47;102283.61;104831;1274;99166;-78
2023/02/28 08:25:57;;;;;;;23.80;13.60;;;;;;;-0.79;75.94;102283.14;104374;1280;97998;-84
2023/02/28 08:28:44;;;;;;;26.00;14.50;;;;;;;-0.72;75.86;102283.65;105068;1274;98013;-85
2023/02/28 08:31:29;;;;;;;25.70;14.00;;;;;;;-0.64;75.67;102280.63;104186;1279;99241;-77
2023/02/28 08:34:16;;;;;;;29.50;15.70;;;;;;;-0.57;75.54;102277.32;104968;1273;102253;-78
2023/02/28 08:37:01;;;;;;;21.80;13.50;;;;;;;-0.50;75.47;102274.48;104792;1274;99234;-88
2023/02/28 08:39:46;;;;;;;23.30;12.70;;;;;;;-0.43;74.92;102278.70;104973;1276;100335;-83
2023/02/28 08:42:32;;;;;;;22.60;12.00;;;;;;;-0.36;74.37;102279.74;104984;1276;98113;-77
2023/02/28 08:45:17;;;;;;;24.70;13.70;;;;;;;-0.30;74.19;102281.35;104491;1274;98597;-73
2023/02/28 08:48:02;;;;;;;31.80;14.60;;;;;;;-0.23;74.14;102278.90;105124;1278;101527;-77
2023/02/28 08:51:09;;;;;;;25.30;13.90;;;;;;;-0.18;73.88;102280.23;104802;1279;101322;-81
2023/02/28 08:54:00;;;;;;;23.60;14.90;;;;;;;-0.14;73.27;102280.76;105531;1274;98026;-78
2023/02/28 08:56:49;;;;;;;24.10;10.90;;;;;;;-0.11;72.92;102280.93;104500;1274;98870;-79
2023/02/28 08:59:33;;;;;;;18.10;11.40;;;;;;;-0.06;72.72;102283.69;104631;1273;97991;-78
2023/02/28 09:02:18;;;;;;;18.10;11.10;;;;;;;-0.01;72.46;102286.58;104648;1279;102239;-78
2023/02/28 09:05:04;;;;;;;17.20;10.10;;;;;;;0.06;72.62;102288.33;104881;1276;99334;-85
2023/02/28 09:07:49;;;;;;;16.70;9.40;;;;;;;0.13;72.00;102287.95;105241;1278;98041;-85
2023/02/28 09:10:35;;;;;;;18.00;10.20;;;;;;;0.17;71.32;102291.94;104660;1280;99053;-76
2023/02/28 09:13:20;;;;;;;16.00;10.40;;;;;;;0.20;70.92;102297.09;104154;1274;99279;-78
2023/02/28 09:16:07;;;;;;;14.10;8.80;;;;;;;0.23;70.60;102296.70;104397;1279;101479;-79
2023/02/28 09:18:53;;;;;;;12.70;8.60;;;;;;;0.27;70.04;102296.73;104568;1280;99082;-79
2023/02/28 09:21:37;;;;;;;14.60;9.50;;;;;;;0.29;69.87;102298.02;104813;1278;98045;-85
2023/02/28 09:24:23;;;;;;;14.60;9.10;;;;;;;0.32;69.44;102299.09;104920;1280;98003;-82
2023/02/28 09:27:08;;;;;;;16.80;10.70;;;;;;;0.36;69.34;102301.50;105101;1274;97927;-84
2023/02/28 09:29:53;;;;;;;20.60;13.10;;;;;;;0.42;69.31;102298.20;104682;1274;102416;-78
2023/02/28 09:32:38;;;;;;;37.70;18.60;;;;;;;0.47;69.70;102300.22;104645;1275;100932;-86
2023/02/28 09:35:24;;;;;;;32.30;17.60;;;;;;;0.51;69.35;102300.35;104854;1273;98976;-87
2023/02/28 09:38:10;;;;;;;20.20;11.80;;;;;;;0.52;68.75;102299.24;104761;1274;98017;-78
2023/02/28 09:40:58;;;;;;;18.20;11.30;;;;;;;0.52;68.50;102302.39;104396;1273;98526;-78
2023/02/28 09:43:47;;;;;;;13.50;9.00;;;;;;;0.55;68.67;102303.47;104383;1280;102650;-78
2023/02/28 09:46:42;;;;;;;18.30;11.10;;;;;;;0.60;68.76;102303.38;104383;1274;99263;-78
2023/02/28 09:49:40;;;;;;;22.20;12.80;;;;;;;0.65;69.08;102303.43;104399;1280;98007;-77
2023/02/28 09:56:05;;;;;;;21.50;11.70;;;;;;;0.83;69.53;102301.75;104174;1277;97914;-78
2023/02/28 09:59:20;;;;;;;18.50;11.80;;;;;;;0.89;69.16;102305.45;104899;1278;102152;-86
2023/02/28 10:02:22;;;;;;;20.20;12.00;;;;;;;0.96;69.17;102306.17;104879;1274;101316;-88
2023/02/28 10:05:20;;;;;;;20.30;12.00;;;;;;;1.02;68.84;102309.89;104268;1277;98923;-84
2023/02/28 10:08:13;;;;;;;18.90;11.30;;;;;;;1.06;68.76;102310.71;104378;1280;98111;-80
2023/02/28 10:11:04;;;;;;;20.20;12.70;;;;;;;1.10;68.54;102307.63;104824;1279;97997;-81
2023/02/28 10:13:57;;;;;;;23.30;14.10;;;;;;;1.14;68.49;102302.30;104144;1276;101395;-80
2023/02/28 10:19:55;;;;;;;18.90;12.50;;;;;;;1.26;68.27;102304.83;106304;1272;99062;-81
2023/02/28 10:22:49;;;;;;;20.40;12.20;;;;;;;1.30;68.07;102302.31;105383;1271;97981;-81
2023/02/28 10:25:36;;;;;;;22.50;13.50;;;;;;;1.37;68.25;102301.23;105405;1276;98458;-78
2023/02/28 10:28:23;;;;;;;22.20;13.00;;;;;;;1.44;68.71;102294.27;105216;1271;103643;-77
2023/02/28 10:31:16;;;;;;;21.10;13.10;;;;;;;1.51;68.36;102292.61;104452;1271;100549;-78
2023/02/28 10:34:03;;;;;;;34.30;22.40;;;;;;;1.57;68.32;102288.80;104192;1273;99294;-78
2023/02/28 10:36:51;;;;;;;31.70;20.80;;;;;;;1.63;67.91;102284.02;104182;1274;99282;-76
2023/02/28 10:39:45;;;;;;;21.80;13.20;;;;;;;1.69;67.67;102286.49;104402;1271;98023;-88
2023/02/28 10:42:38;;;;;;;23.20;13.30;;;;;;;1.75;67.79;102280.14;105607;1276;101381;-79
2023/02/28 10:45:24;;;;;;;20.70;12.80;;;;;;;1.82;67.30;102282.91;104917;1271;99890;-81
2023/02/28 10:48:18;;;;;;;21.40;13.30;;;;;;;1.87;67.09;102284.73;105004;1279;97714;-90
2023/02/28 10:51:13;;;;;;;27.80;17.50;;;;;;;1.90;66.68;102282.61;105340;1273;97987;-89
2023/02/28 10:54:05;;;;;;;20.70;13.40;;;;;;;1.93;67.04;102279.94;105185;1277;97952;-82
2023/02/28 10:57:20;;;;;;;25.80;15.00;;;;;;;1.98;67.02;102274.52;105416;1271;102592;-85
2023/02/28 11:00:14;;;;;;;51.60;34.50;;;;;;;2.03;66.95;102269.31;105168;1271;99170;-84
2023/02/28 11:02:59;;;;;;;28.00;17.30;;;;;;;2.06;66.91;102261.72;104671;1274;98345;-83
2023/02/28 11:05:45;;;;;;;26.30;14.00;;;;;;;2.08;66.38;102259.88;104939;1279;98026;-82
2023/02/28 11:08:30;;;;;;;19.40;12.80;;;;;;;2.07;66.04;102258.33;105015;1276;98032;-83
2023/02/28 11:11:19;;;;;;;18.40;11.50;;;;;;;2.05;65.86;102256.14;105303;1271;102508;-90
2023/02/28 11:14:06;;;;;;;22.00;13.90;;;;;;;2.06;65.55;102252.41;104923;1271;100333;-83
2023/02/28 11:16:52;;;;;;;24.80;14.30;;;;;;;2.07;65.50;102251.10;105153;1276;100201;-76
2023/02/28 11:19:47;;;;;;;23.10;15.70;;;;;;;2.10;65.70;102247.21;105331;1274;97979;-81
2023/02/28 11:22:39;;;;;;;18.60;12.10;;;;;;;2.14;65.65;102243.26;105180;1271;97057;-82
2023/02/28 11:25:29;;;;;;;19.00;12.90;;;;;;;2.16;65.28;102237.70;105454;1271;103439;-83
2023/02/28 11:28:43;;;;;;;20.80;12.90;;;;;;;2.19;65.59;102234.69;105342;1271;101316;-87
2023/02/28 11:31:29;;;;;;;23.00;14.80;;;;;;;2.26;66.39;102230.20;105289;1271;99531;-85
2023/02/28 11:34:27;;;;;;;20.20;12.90;;;;;;;2.32;66.17;102231.19;104825;1271;98106;-84
2023/02/28 11:37:18;;;;;;;18.00;12.90;;;;;;;2.40;66.20;102231.82;105134;1272;99595;-85
2023/02/28 11:40:29;;;;;;;19.70;13.80;;;;;;;2.46;66.15;102229.17;105125;1271;101919;-85
2023/02/28 11:43:36;;;;;;;23.00;14.70;;;;;;;2.50;65.56;102227.48;105231;1277;99220;-84
2023/02/28 11:46:39;;;;;;;18.80;12.40;;;;;;;2.52;65.56;102228.07;105442;1274;99008;-85
2023/02/28 11:49:35;;;;;;;21.30;13.30;;;;;;;2.53;65.18;102223.91;104422;1276;99566;-78
2023/02/28 11:52:34;;;;;;;20.30;11.70;;;;;;;2.57;64.94;102218.91;104619;1276;99807;-78
2023/02/28 11:55:42;;;;;;;17.00;11.90;;;;;;;2.61;65.17;102216.70;105358;1272;101406;-78
2023/02/28 11:58:45;;;;;;;18.90;12.60;;;;;;;2.67;65.39;102210.67;104929;1271;100410;-79
2023/02/28 12:01:50;;;;;;;17.40;12.10;;;;;;;2.74;65.04;102207.39;104788;1276;99578;-78
2023/02/28 12:04:51;;;;;;;22.80;13.20;;;;;;;2.80;64.87;102203.50;104813;1271;98131;-79
2023/02/28 12:07:53;;;;;;;20.30;12.80;;;;;;;2.83;64.17;102203.45;104721;1273;99715;-80
2023/02/28 12:10:57;;;;;;;21.20;13.00;;;;;;;2.81;64.11;102203.60;104736;1272;101302;-80
2023/02/28 12:13:56;;;;;;;23.50;14.60;;;;;;;2.84;64.28;102201.46;104668;1276;100640;-79
2023/02/28 12:16:50;;;;;;;27.20;15.70;;;;;;;2.87;63.95;102199.30;104758;1271;97997;-80
2023/02/28 12:20:18;;;;;;;34.70;17.70;;;;;;;2.90;63.63;102194.15;104627;1274;98042;-78
2023/02/28 12:23:15;;;;;;;22.00;13.50;;;;;;;2.94;63.61;102191.61;104603;1271;100341;-78
2023/02/28 12:26:27;;;;;;;26.90;15.30;;;;;;;2.95;63.09;102180.95;104445;1277;101440;-79
2023/02/28 12:29:28;;;;;;;20.20;12.60;;;;;;;2.95;62.84;102182.20;104653;1276;99223;-80
2023/02/28 12:32:21;;;;;;;17.70;12.50;;;;;;;2.98;63.49;102180.10;104795;1271;99367;-79
2023/02/28 12:35:09;;;;;;;23.60;14.10;;;;;;;3.01;63.28;102173.91;104742;1271;97956;-79
2023/02/28 12:38:06;;;;;;;20.90;12.70;;;;;;;3.01;62.62;102170.02;104920;1271;97930;-78
2023/02/28 12:41:05;;;;;;;18.60;12.80;;;;;;;3.01;62.82;102168.39;104812;1277;103094;-80
2023/02/28 12:44:03;;;;;;;23.60;12.00;;;;;;;3.06;62.82;102165.27;104778;1279;108601;-79
2023/02/28 12:46:56;;;;;;;23.30;13.60;;;;;;;3.12;63.31;102160.29;104597;1271;98447;-79
2023/02/28 12:49:58;;;;;;;21.60;12.70;;;;;;;3.18;63.26;102156.87;104870;1277;98873;-78
2023/02/28 12:52:51;;;;;;;23.40;12.50;;;;;;;3.21;62.67;102156.65;105199;1271;98006;-79